sensor_id;sensor_type;location;lat;lon;timestamp;pressure;altitude;pressure_sealevel;temperature;humidity
4745;BME280;2386;42.138;24.746;2023-07-20T00:01:53;99140.38;;;28.21;55.65
4745;BME280;2386;42.138;24.746;2023-07-20T00:04:18;99145.69;;;28.26;55.35
4745;BME280;2386;42.138;24.746;2023-07-20T00:06:44;99151.97;;;27.91;56.34
4745;BME280;2386;42.138;24.746;2023-07-20T00:09:10;99154.31;;;27.89;57.47
4745;BME280;2386;42.138;24.746;2023-07-20T00:11:36;99176.19;;;28.19;56.20
4745;BME280;2386;42.138;24.746;2023-07-20T00:14:05;99164.50;;;28.13;55.32
4745;BME280;2386;42.138;24.746;2023-07-20T00:19:53;99133.53;;;28.18;54.74
4745;BME280;2386;42.138;24.746;2023-07-20T00:22:18;99129.69;;;28.23;55.54
4745;BME280;2386;42.138;24.746;2023-07-20T00:24:44;99118.88;;;28.21;54.73
4745;BME280;2386;42.138;24.746;2023-07-20T00:30:31;99071.88;;;28.39;52.96
4745;BME280;2386;42.138;24.746;2023-07-20T00:32:56;99070.44;;;28.45;53.31
4745;BME280;2386;42.138;24.746;2023-07-20T00:35:22;99077.06;;;28.56;52.75
4745;BME280;2386;42.138;24.746;2023-07-20T00:37:47;99078.50;;;28.66;52.42
4745;BME280;2386;42.138;24.746;2023-07-20T00:40:15;99054.00;;;28.59;50.68
4745;BME280;2386;42.138;24.746;2023-07-20T00:46:05;99030.75;;;28.71;50.11
4745;BME280;2386;42.138;24.746;2023-07-20T00:48:31;99030.47;;;28.76;49.90
4745;BME280;2386;42.138;24.746;2023-07-20T00:51:00;99013.56;;;28.69;50.24
4745;BME280;2386;42.138;24.746;2023-07-20T00:53:28;99042.31;;;28.89;49.89
4745;BME280;2386;42.138;24.746;2023-07-20T00:55:53;99050.78;;;28.92;50.19
4745;BME280;2386;42.138;24.746;2023-07-20T00:58:19;99059.78;;;29.05;49.34
4745;BME280;2386;42.138;24.746;2023-07-20T01:00:45;99065.59;;;29.16;49.77
4745;BME280;2386;42.138;24.746;2023-07-20T01:03:12;99053.53;;;29.11;48.75
4745;BME280;2386;42.138;24.746;2023-07-20T01:08:24;99045.59;;;29.14;49.18
4745;BME280;2386;42.138;24.746;2023-07-20T01:13:41;99040.53;;;29.19;49.25
4745;BME280;2386;42.138;24.746;2023-07-20T01:16:08;99051.91;;;29.30;48.89
4745;BME280;2386;42.138;24.746;2023-07-20T01:18:33;99029.94;;;29.28;47.95
4745;BME280;2386;42.138;24.746;2023-07-20T01:21:06;99023.53;;;29.28;48.36
4745;BME280;2386;42.138;24.746;2023-07-20T01:31:52;99002.22;;;29.20;49.10
4745;BME280;2386;42.138;24.746;2023-07-20T01:34:20;99013.03;;;29.21;48.06
4745;BME280;2386;42.138;24.746;2023-07-20T01:36:48;99007.44;;;29.21;48.56
4745;BME280;2386;42.138;24.746;2023-07-20T01:39:16;99009.06;;;29.22;48.42
4745;BME280;2386;42.138;24.746;2023-07-20T01:41:42;98989.38;;;29.15;48.13
4745;BME280;2386;42.138;24.746;2023-07-20T01:44:08;99012.28;;;29.24;48.61
4745;BME280;2386;42.138;24.746;2023-07-20T01:46:33;99009.88;;;29.23;49.28
4745;BME280;2386;42.138;24.746;2023-07-20T01:48:59;99012.28;;;29.24;49.15
4745;BME280;2386;42.138;24.746;2023-07-20T01:51:24;99015.47;;;29.23;49.32
4745;BME280;2386;42.138;24.746;2023-07-20T01:53:50;99013.03;;;29.21;49.75
4745;BME280;2386;42.138;24.746;2023-07-20T01:56:15;99011.47;;;29.24;49.53
4745;BME280;2386;42.138;24.746;2023-07-20T01:58:41;99002.53;;;29.15;49.38
4745;BME280;2386;42.138;24.746;2023-07-20T02:01:06;99013.63;;;29.11;50.31
4745;BME280;2386;42.138;24.746;2023-07-20T02:03:31;99018.03;;;29.12;50.00
4745;BME280;2386;42.138;24.746;2023-07-20T02:05:57;99005.84;;;29.01;50.31
4745;BME280;2386;42.138;24.746;2023-07-20T02:08:23;99016.72;;;29.06;50.42
4745;BME280;2386;42.138;24.746;2023-07-20T02:10:49;99018.34;;;29.07;50.51
4745;BME280;2386;42.138;24.746;2023-07-20T02:13:15;99019.94;;;29.08;50.69
4745;BME280;2386;42.138;24.746;2023-07-20T02:15:41;99011.31;;;28.94;51.37
4745;BME280;2386;42.138;24.746;2023-07-20T02:18:07;99032.00;;;29.12;51.19
4745;BME280;2386;42.138;24.746;2023-07-20T02:20:33;99030.38;;;29.11;51.55
4745;BME280;2386;42.138;24.746;2023-07-20T02:22:59;99025.09;;;29.06;51.64
4745;BME280;2386;42.138;24.746;2023-07-20T02:25:24;99024.53;;;28.97;51.41
4745;BME280;2386;42.138;24.746;2023-07-20T02:27:49;99024.53;;;28.97;51.32
4745;BME280;2386;42.138;24.746;2023-07-20T02:30:15;99020.78;;;28.89;51.86
4745;BME280;2386;42.138;24.746;2023-07-20T02:32:41;99046.13;;;29.00;51.48
4745;BME280;2386;42.138;24.746;2023-07-20T02:35:11;99024.75;;;28.88;51.63
4745;BME280;2386;42.138;24.746;2023-07-20T02:37:37;99018.44;;;28.91;51.59
4745;BME280;2386;42.138;24.746;2023-07-20T02:40:02;99015.75;;;28.79;51.87
4745;BME280;2386;42.138;24.746;2023-07-20T02:42:29;99002.31;;;28.65;52.20
4745;BME280;2386;42.138;24.746;2023-07-20T02:44:55;98996.66;;;28.62;52.12
4745;BME280;2386;42.138;24.746;2023-07-20T02:47:20;99014.88;;;28.75;51.60
4745;BME280;2386;42.138;24.746;2023-07-20T02:49:46;99015.25;;;28.73;52.13
4745;BME280;2386;42.138;24.746;2023-07-20T02:52:11;99009.34;;;28.59;51.16
4745;BME280;2386;42.138;24.746;2023-07-20T02:54:37;99019.94;;;28.69;51.38
4745;BME280;2386;42.138;24.746;2023-07-20T02:57:02;99005.09;;;28.65;51.89
4745;BME280;2386;42.138;24.746;2023-07-20T02:59:28;99002.22;;;28.62;51.99
4745;BME280;2386;42.138;24.746;2023-07-20T03:01:54;98999.13;;;28.48;52.64
4745;BME280;2386;42.138;24.746;2023-07-20T03:04:21;99004.22;;;28.26;52.18
4745;BME280;2386;42.138;24.746;2023-07-20T03:06:46;99024.47;;;28.23;52.37
4745;BME280;2386;42.138;24.746;2023-07-20T03:09:12;99014.38;;;28.34;52.52
4745;BME280;2386;42.138;24.746;2023-07-20T03:11:37;99012.13;;;28.40;52.50
4745;BME280;2386;42.138;24.746;2023-07-20T03:14:03;99001.25;;;28.35;51.89
4745;BME280;2386;42.138;24.746;2023-07-20T03:16:28;99013.91;;;28.48;53.22
4745;BME280;2386;42.138;24.746;2023-07-20T03:18:54;99007.88;;;28.46;52.34
4745;BME280;2386;42.138;24.746;2023-07-20T03:21:19;99020.38;;;28.52;52.36
4745;BME280;2386;42.138;24.746;2023-07-20T03:23:44;99009.47;;;28.47;52.61
4745;BME280;2386;42.138;24.746;2023-07-20T03:26:11;99004.19;;;28.42;52.45
4745;BME280;2386;42.138;24.746;2023-07-20T03:28:37;99022.78;;;28.54;52.23
4745;BME280;2386;42.138;24.746;2023-07-20T03:31:03;99019.63;;;28.55;52.90
4745;BME280;2386;42.138;24.746;2023-07-20T03:33:30;99007.22;;;28.53;53.25
4745;BME280;2386;42.138;24.746;2023-07-20T03:35:57;99007.50;;;28.48;53.73
4745;BME280;2386;42.138;24.746;2023-07-20T03:38:25;99015.94;;;28.51;53.32
4745;BME280;2386;42.138;24.746;2023-07-20T03:40:56;99000.31;;;28.46;53.20
4745;BME280;2386;42.138;24.746;2023-07-20T03:43:23;98989.44;;;28.41;53.42
4745;BME280;2386;42.138;24.746;2023-07-20T03:45:49;98970.09;;;28.33;53.25
4745;BME280;2386;42.138;24.746;2023-07-20T03:48:16;98982.50;;;28.35;54.14
4745;BME280;2386;42.138;24.746;2023-07-20T03:50:44;98986.56;;;28.38;54.29
4745;BME280;2386;42.138;24.746;2023-07-20T03:53:11;98975.16;;;28.27;54.06
4745;BME280;2386;42.138;24.746;2023-07-20T03:55:36;98976.22;;;28.38;54.34
4745;BME280;2386;42.138;24.746;2023-07-20T03:58:02;99000.66;;;28.45;55.78
4745;BME280;2386;42.138;24.746;2023-07-20T04:00:27;98984.38;;;28.47;54.74
4745;BME280;2386;42.138;24.746;2023-07-20T04:06:15;98984.44;;;28.51;56.00
4745;BME280;2386;42.138;24.746;2023-07-20T04:08:42;98994.97;;;28.57;55.60
4745;BME280;2386;42.138;24.746;2023-07-20T04:11:07;99008.69;;;28.66;56.48
4745;BME280;2386;42.138;24.746;2023-07-20T04:13:32;99003.94;;;28.66;55.88
4745;BME280;2386;42.138;24.746;2023-07-20T04:16:00;98984.53;;;28.54;54.87
4745;BME280;2386;42.138;24.746;2023-07-20T04:18:25;99008.84;;;28.73;55.01
4745;BME280;2386;42.138;24.746;2023-07-20T04:20:51;99003.78;;;28.78;55.02
4745;BME280;2386;42.138;24.746;2023-07-20T04:23:16;99004.09;;;28.73;56.21
4745;BME280;2386;42.138;24.746;2023-07-20T04:25:42;99001.72;;;28.75;57.07
4745;BME280;2386;42.138;24.746;2023-07-20T04:28:08;99001.44;;;28.81;56.08
4745;BME280;2386;42.138;24.746;2023-07-20T04:30:35;99008.75;;;28.85;56.25
4745;BME280;2386;42.138;24.746;2023-07-20T04:33:01;99001.97;;;28.86;54.03
4745;BME280;2386;42.138;24.746;2023-07-20T04:35:49;99017.38;;;28.99;52.99
4745;BME280;2386;42.138;24.746;2023-07-20T04:38:15;99021.25;;;28.91;53.11
4745;BME280;2386;42.138;24.746;2023-07-20T06:33:22;98968.38;;;29.93;50.94
4745;BME280;2386;42.138;24.746;2023-07-20T06:35:47;98968.38;;;29.93;48.83
4745;BME280;2386;42.138;24.746;2023-07-20T06:38:12;98973.53;;;29.91;47.83
4745;BME280;2386;42.138;24.746;2023-07-20T06:40:38;98973.84;;;29.86;49.08
4745;BME280;2386;42.138;24.746;2023-07-20T06:43:03;98967.94;;;29.91;48.72
4745;BME280;2386;42.138;24.746;2023-07-20T06:45:29;98972.19;;;30.04;47.94
4745;BME280;2386;42.138;24.746;2023-07-20T06:47:55;98964.81;;;29.96;47.42
4745;BME280;2386;42.138;24.746;2023-07-20T06:50:20;98972.28;;;30.12;46.97
4745;BME280;2386;42.138;24.746;2023-07-20T06:52:46;98973.56;;;30.18;47.34
4745;BME280;2386;42.138;24.746;2023-07-20T06:55:13;98979.72;;;30.27;47.10
4745;BME280;2386;42.138;24.746;2023-07-20T06:57:38;98972.50;;;30.26;46.43
4745;BME280;2386;42.138;24.746;2023-07-20T07:00:04;98967.59;;;30.19;46.22
4745;BME280;2386;42.138;24.746;2023-07-20T07:02:31;98971.25;;;30.23;46.83
4745;BME280;2386;42.138;24.746;2023-07-20T07:04:56;98974.31;;;30.41;46.20
4745;BME280;2386;42.138;24.746;2023-07-20T07:07:22;98973.47;;;30.37;45.70
4745;BME280;2386;42.138;24.746;2023-07-20T07:09:47;98974.25;;;30.37;45.93
4745;BME280;2386;42.138;24.746;2023-07-20T07:12:13;98976.72;;;30.43;46.34
4745;BME280;2386;42.138;24.746;2023-07-20T07:14:40;98963.59;;;30.50;46.03
4745;BME280;2386;42.138;24.746;2023-07-20T07:17:06;98966.28;;;30.69;46.31
4745;BME280;2386;42.138;24.746;2023-07-20T07:19:32;98957.13;;;30.72;45.46
4745;BME280;2386;42.138;24.746;2023-07-20T07:21:57;98965.22;;;30.81;44.98
4745;BME280;2386;42.138;24.746;2023-07-20T07:24:23;98959.75;;;30.92;45.50
4745;BME280;2386;42.138;24.746;2023-07-20T07:26:48;98963.06;;;31.01;45.62
4745;BME280;2386;42.138;24.746;2023-07-20T07:29:13;98955.16;;;31.10;45.44
4745;BME280;2386;42.138;24.746;2023-07-20T07:31:46;98966.47;;;31.21;44.67
4745;BME280;2386;42.138;24.746;2023-07-20T07:34:17;98950.47;;;31.18;43.69
4745;BME280;2386;42.138;24.746;2023-07-20T07:36:43;98959.38;;;31.30;43.48
4745;BME280;2386;42.138;24.746;2023-07-20T07:39:09;98944.16;;;31.31;43.68
4745;BME280;2386;42.138;24.746;2023-07-20T07:41:34;98953.97;;;31.52;43.70
4745;BME280;2386;42.138;24.746;2023-07-20T07:44:00;98952.38;;;31.54;43.65
4745;BME280;2386;42.138;24.746;2023-07-20T07:49:47;98954.03;;;31.59;43.88
4745;BME280;2386;42.138;24.746;2023-07-20T07:52:12;98950.03;;;31.60;43.39
4745;BME280;2386;42.138;24.746;2023-07-20T07:54:39;98953.69;;;31.64;43.24
4745;BME280;2386;42.138;24.746;2023-07-20T08:00:26;98952.19;;;31.74;43.18
4745;BME280;2386;42.138;24.746;2023-07-20T08:02:52;98962.31;;;31.85;43.22
4745;BME280;2386;42.138;24.746;2023-07-20T08:05:17;98951.06;;;31.85;43.53
4745;BME280;2386;42.138;24.746;2023-07-20T08:07:43;98945.38;;;31.75;43.58
4745;BME280;2386;42.138;24.746;2023-07-20T08:10:09;98953.09;;;31.88;43.40
4745;BME280;2386;42.138;24.746;2023-07-20T08:20:18;98958.38;;;32.00;42.48
4745;BME280;2386;42.138;24.746;2023-07-20T08:22:44;98959.22;;;32.08;41.94
4745;BME280;2386;42.138;24.746;2023-07-20T08:25:12;98952.03;;;32.11;41.47
4745;BME280;2386;42.138;24.746;2023-07-20T08:30:26;98967.31;;;32.20;42.23
4745;BME280;2386;42.138;24.746;2023-07-20T08:40:43;98977.09;;;32.41;41.04
4745;BME280;2386;42.138;24.746;2023-07-20T08:43:10;98963.06;;;32.41;42.18
4745;BME280;2386;42.138;24.746;2023-07-20T08:45:40;98961.09;;;32.48;42.49
4745;BME280;2386;42.138;24.746;2023-07-20T08:48:07;98963.91;;;32.48;41.05
4745;BME280;2386;42.138;24.746;2023-07-20T08:50:34;98966.66;;;32.38;41.95
4745;BME280;2386;42.138;24.746;2023-07-20T08:53:00;98953.03;;;32.40;41.69
4745;BME280;2386;42.138;24.746;2023-07-20T08:55:29;98948.28;;;32.51;41.38
4745;BME280;2386;42.138;24.746;2023-07-20T08:57:59;98924.25;;;32.60;42.07
4745;BME280;2386;42.138;24.746;2023-07-20T09:00:29;98937.91;;;32.73;40.94
4745;BME280;2386;42.138;24.746;2023-07-20T09:03:18;98930.75;;;32.82;40.61
4745;BME280;2386;42.138;24.746;2023-07-20T09:05:46;98929.56;;;32.87;39.81
4745;BME280;2386;42.138;24.746;2023-07-20T09:08:11;98932.81;;;33.07;40.83
4745;BME280;2386;42.138;24.746;2023-07-20T09:10:37;98924.81;;;33.12;39.75
4745;BME280;2386;42.138;24.746;2023-07-20T09:13:02;98910.34;;;33.17;40.39
4745;BME280;2386;42.138;24.746;2023-07-20T09:15:29;98906.75;;;33.27;39.55
4745;BME280;2386;42.138;24.746;2023-07-20T09:17:55;98922.88;;;33.34;39.37
4745;BME280;2386;42.138;24.746;2023-07-20T09:20:20;98920.44;;;33.33;39.06
4745;BME280;2386;42.138;24.746;2023-07-20T09:22:46;98908.81;;;33.38;39.72
4745;BME280;2386;42.138;24.746;2023-07-20T09:25:13;98909.97;;;33.44;39.12
4745;BME280;2386;42.138;24.746;2023-07-20T09:27:41;98899.53;;;33.48;39.33
4745;BME280;2386;42.138;24.746;2023-07-20T09:30:08;98887.88;;;33.53;40.06
4745;BME280;2386;42.138;24.746;2023-07-20T09:32:48;98880.66;;;33.62;39.35
4745;BME280;2386;42.138;24.746;2023-07-20T09:35:18;98889.06;;;33.77;39.26
4745;BME280;2386;42.138;24.746;2023-07-20T09:38:00;98886.25;;;33.77;39.11
4745;BME280;2386;42.138;24.746;2023-07-20T09:40:26;98883.06;;;33.82;37.90
4745;BME280;2386;42.138;24.746;2023-07-20T09:42:53;98878.63;;;33.84;38.29
4745;BME280;2386;42.138;24.746;2023-07-20T09:45:43;98879.44;;;33.92;38.25
4745;BME280;2386;42.138;24.746;2023-07-20T09:48:10;98876.19;;;34.01;37.99
4745;BME280;2386;42.138;24.746;2023-07-20T09:50:43;98875.38;;;34.00;38.51
4745;BME280;2386;42.138;24.746;2023-07-20T09:53:13;98883.00;;;34.10;37.57
4745;BME280;2386;42.138;24.746;2023-07-20T09:55:40;98868.88;;;34.21;38.79
4745;BME280;2386;42.138;24.746;2023-07-20T09:58:08;98864.03;;;34.25;37.81
4745;BME280;2386;42.138;24.746;2023-07-20T10:00:38;98860.78;;;34.37;38.53
4745;BME280;2386;42.138;24.746;2023-07-20T10:03:07;98851.91;;;34.46;37.94
4745;BME280;2386;42.138;24.746;2023-07-20T10:05:33;98846.25;;;34.49;38.45
4745;BME280;2386;42.138;24.746;2023-07-20T10:13:14;98850.94;;;34.74;38.01
4745;BME280;2386;42.138;24.746;2023-07-20T10:15:54;98844.09;;;34.75;36.74
4745;BME280;2386;42.138;24.746;2023-07-20T10:20:49;98820.72;;;34.81;36.69
4745;BME280;2386;42.138;24.746;2023-07-20T10:23:17;98818.28;;;34.83;37.00
4745;BME280;2386;42.138;24.746;2023-07-20T10:25:42;98821.50;;;34.85;36.58
4745;BME280;2386;42.138;24.746;2023-07-20T10:28:12;98818.19;;;34.94;36.96
4745;BME280;2386;42.138;24.746;2023-07-20T10:30:56;98804.91;;;34.95;37.16
4745;BME280;2386;42.138;24.746;2023-07-20T10:33:23;98814.94;;;34.99;36.24
4745;BME280;2386;42.138;24.746;2023-07-20T10:36:03;98815.31;;;35.01;36.00
4745;BME280;2386;42.138;24.746;2023-07-20T10:38:43;98798.38;;;35.05;35.76
4745;BME280;2386;42.138;24.746;2023-07-20T10:41:18;98807.94;;;35.18;36.01
4745;BME280;2386;42.138;24.746;2023-07-20T10:43:45;98809.88;;;35.24;36.18
4745;BME280;2386;42.138;24.746;2023-07-20T10:46:11;98794.53;;;35.33;34.98
4745;BME280;2386;42.138;24.746;2023-07-20T10:49:01;98806.16;;;35.38;34.73
4745;BME280;2386;42.138;24.746;2023-07-20T10:51:43;98802.94;;;35.40;34.99
4745;BME280;2386;42.138;24.746;2023-07-20T10:56:44;98789.09;;;35.52;32.87
4745;BME280;2386;42.138;24.746;2023-07-20T11:01:55;98795.53;;;35.91;32.46
4745;BME280;2386;42.138;24.746;2023-07-20T11:04:44;98779.28;;;36.02;32.04
4745;BME280;2386;42.138;24.746;2023-07-20T11:07:41;98775.47;;;36.15;31.71
4745;BME280;2386;42.138;24.746;2023-07-20T13:45:24;98673.06;;;50.09;16.41
4745;BME280;2386;42.138;24.746;2023-07-20T13:47:49;98676.16;;;50.56;16.21
4745;BME280;2386;42.138;24.746;2023-07-20T13:53:38;98660.19;;;51.30;15.52
4745;BME280;2386;42.138;24.746;2023-07-20T13:56:03;98669.03;;;50.85;15.86
4745;BME280;2386;42.138;24.746;2023-07-20T13:58:29;98659.31;;;52.17;14.75
4745;BME280;2386;42.138;24.746;2023-07-20T14:00:55;98669.66;;;52.07;14.21
4745;BME280;2386;42.138;24.746;2023-07-20T14:16:14;98647.06;;;52.35;13.95
4745;BME280;2386;42.138;24.746;2023-07-20T14:18:40;98656.75;;;52.08;13.56
4745;BME280;2386;42.138;24.746;2023-07-20T14:21:05;98656.69;;;52.73;14.35
4745;BME280;2386;42.138;24.746;2023-07-20T14:23:32;98648.16;;;52.57;13.52
4745;BME280;2386;42.138;24.746;2023-07-20T14:25:57;98636.84;;;53.02;13.22
4745;BME280;2386;42.138;24.746;2023-07-20T14:28:23;98628.34;;;52.06;13.46
4745;BME280;2386;42.138;24.746;2023-07-20T14:30:49;98636.31;;;52.30;13.64
4745;BME280;2386;42.138;24.746;2023-07-20T14:33:17;98625.41;;;51.41;14.19
4745;BME280;2386;42.138;24.746;2023-07-20T14:35:52;98634.22;;;51.59;13.67
4745;BME280;2386;42.138;24.746;2023-07-20T14:56:33;98637.19;;;52.93;13.11
4745;BME280;2386;42.138;24.746;2023-07-20T14:58:58;98653.38;;;52.04;13.11
4745;BME280;2386;42.138;24.746;2023-07-20T15:01:25;98651.72;;;51.37;13.00
4745;BME280;2386;42.138;24.746;2023-07-20T15:03:51;98661.50;;;50.48;13.16
4745;BME280;2386;42.138;24.746;2023-07-20T15:06:18;98669.78;;;50.91;12.96
4745;BME280;2386;42.138;24.746;2023-07-20T15:08:44;98659.66;;;50.17;13.33
4745;BME280;2386;42.138;24.746;2023-07-20T15:11:09;98663.47;;;50.92;13.23
4745;BME280;2386;42.138;24.746;2023-07-20T15:13:35;98660.19;;;51.30;13.28
4745;BME280;2386;42.138;24.746;2023-07-20T15:16:00;98668.53;;;50.53;13.09
4745;BME280;2386;42.138;24.746;2023-07-20T15:18:26;98677.66;;;49.45;13.96
4745;BME280;2386;42.138;24.746;2023-07-20T15:20:51;98672.06;;;48.34;14.62
4745;BME280;2386;42.138;24.746;2023-07-20T15:23:19;98662.28;;;47.17;15.69
4745;BME280;2386;42.138;24.746;2023-07-20T15:25:45;98664.00;;;46.53;16.50
4745;BME280;2386;42.138;24.746;2023-07-20T15:28:11;98657.84;;;45.66;17.82
4745;BME280;2386;42.138;24.746;2023-07-20T15:30:36;98667.47;;;45.01;17.18
4745;BME280;2386;42.138;24.746;2023-07-20T15:33:05;98677.44;;;44.15;18.52
4745;BME280;2386;42.138;24.746;2023-07-20T15:35:30;98674.84;;;43.66;18.90
4745;BME280;2386;42.138;24.746;2023-07-20T15:37:55;98678.78;;;43.14;19.70
4745;BME280;2386;42.138;24.746;2023-07-20T15:40:24;98669.84;;;42.35;20.26
4745;BME280;2386;42.138;24.746;2023-07-20T15:42:49;98663.28;;;41.85;20.88
4745;BME280;2386;42.138;24.746;2023-07-20T15:45:15;98671.63;;;41.36;21.41
4745;BME280;2386;42.138;24.746;2023-07-20T15:47:45;98678.22;;;40.98;22.07
4745;BME280;2386;42.138;24.746;2023-07-20T15:50:17;98673.75;;;40.63;21.87
4745;BME280;2386;42.138;24.746;2023-07-20T15:52:42;98669.09;;;40.44;22.41
4745;BME280;2386;42.138;24.746;2023-07-20T15:55:08;98666.22;;;40.31;22.05
4745;BME280;2386;42.138;24.746;2023-07-20T15:57:33;98678.75;;;40.08;22.88
4745;BME280;2386;42.138;24.746;2023-07-20T16:03:22;98680.53;;;39.89;23.73
4745;BME280;2386;42.138;24.746;2023-07-20T16:05:49;98675.94;;;39.79;23.44
4745;BME280;2386;42.138;24.746;2023-07-20T16:08:15;98671.25;;;39.60;24.40
4745;BME280;2386;42.138;24.746;2023-07-20T16:10:42;98685.88;;;39.58;24.29
4745;BME280;2386;42.138;24.746;2023-07-20T16:19:38;98702.31;;;39.22;24.47
4745;BME280;2386;42.138;24.746;2023-07-20T16:22:04;98692.94;;;39.08;25.62
4745;BME280;2386;42.138;24.746;2023-07-20T16:24:30;98677.44;;;38.81;24.87
4745;BME280;2386;42.138;24.746;2023-07-20T16:26:56;98688.16;;;38.73;24.97
4745;BME280;2386;42.138;24.746;2023-07-20T16:29:23;98683.22;;;38.61;24.77
4745;BME280;2386;42.138;24.746;2023-07-20T16:31:49;98687.09;;;38.51;25.09
4745;BME280;2386;42.138;24.746;2023-07-20T16:34:15;98682.28;;;38.31;25.48
4745;BME280;2386;42.138;24.746;2023-07-20T16:36:40;98682.00;;;38.26;25.93
4745;BME280;2386;42.138;24.746;2023-07-20T16:39:07;98683.25;;;38.05;26.21
4745;BME280;2386;42.138;24.746;2023-07-20T16:41:39;98690.16;;;37.88;26.63
4745;BME280;2386;42.138;24.746;2023-07-20T16:44:04;98698.47;;;37.95;27.52
4745;BME280;2386;42.138;24.746;2023-07-20T16:46:31;98715.16;;;37.89;26.66
4745;BME280;2386;42.138;24.746;2023-07-20T16:48:57;98692.44;;;37.53;27.20
4745;BME280;2386;42.138;24.746;2023-07-20T16:51:27;98703.69;;;37.57;27.31
4745;BME280;2386;42.138;24.746;2023-07-20T16:53:53;98693.25;;;37.54;27.10
4745;BME280;2386;42.138;24.746;2023-07-20T16:56:18;98715.38;;;37.59;27.68
4745;BME280;2386;42.138;24.746;2023-07-20T16:58:44;98706.38;;;37.44;27.77
4745;BME280;2386;42.138;24.746;2023-07-20T17:01:25;98717.09;;;37.33;28.36
4745;BME280;2386;42.138;24.746;2023-07-20T17:04:02;98733.06;;;37.19;28.64
4745;BME280;2386;42.138;24.746;2023-07-20T17:06:27;98727.75;;;37.02;28.79
4745;BME280;2386;42.138;24.746;2023-07-20T17:09:15;98727.69;;;37.05;29.59
4745;BME280;2386;42.138;24.746;2023-07-20T17:12:09;98731.63;;;37.11;29.29
4745;BME280;2386;42.138;24.746;2023-07-20T17:14:49;98732.38;;;36.92;29.48
4745;BME280;2386;42.138;24.746;2023-07-20T17:17:22;98737.91;;;36.99;29.08
4745;BME280;2386;42.138;24.746;2023-07-20T17:22:42;98731.03;;;36.73;29.46
4745;BME280;2386;42.138;24.746;2023-07-20T17:31:53;98778.97;;;35.93;36.46
4745;BME280;2386;42.138;24.746;2023-07-20T17:34:19;98785.69;;;35.68;37.97
4745;BME280;2386;42.138;24.746;2023-07-20T17:36:47;98775.53;;;35.40;39.30
4745;BME280;2386;42.138;24.746;2023-07-20T17:42:35;98805.91;;;34.63;41.72
4745;BME280;2386;42.138;24.746;2023-07-20T17:45:01;98808.50;;;34.33;43.14
4745;BME280;2386;42.138;24.746;2023-07-20T17:47:27;98824.72;;;33.97;44.26
4745;BME280;2386;42.138;24.746;2023-07-20T17:49:57;98827.97;;;33.70;46.01
